Time;durP1;ratioP1;P1;durP2;ratioP2;P2;SDS_P1;SDS_P2;PMS_P1;PMS_P2;Temp;Humidity;BMP_temperature;BMP_pressure;BME280_temperature;BME280_humidity;BME280_pressure;Samples;Min_cycle;Max_cycle;Signal;HPM_P1;HPM_P2
2022/03/18 00:00:18;;;;;;;7.68;5.40;;;;;;;;;;5063665;28;20193;-78
2022/03/18 00:02:45;;;;;;;8.18;4.60;;;;;;;;;;5071931;28;20293;-78
2022/03/18 00:05:14;;;;;;;6.32;4.38;;;;;;;;;;5071984;28;20190;-78
2022/03/18 00:07:42;;;;;;;6.93;4.72;;;;;;;;;;5068637;28;20747;-78
2022/03/18 00:10:09;;;;;;;8.02;5.60;;;;;;;;;;5068996;28;20201;-79
2022/03/18 00:12:37;;;;;;;5.78;4.13;;;;;;;;;;5068214;28;20182;-78
2022/03/18 00:15:05;;;;;;;7.28;4.22;;;;;;;;;;5060972;28;20198;-73
2022/03/18 00:17:31;;;;;;;5.47;4.35;;;;;;;;;;5063924;28;20214;-74
2022/03/18 00:19:58;;;;;;;8.50;5.18;;;;;;;;;;5070801;28;20205;-73
2022/03/18 00:22:27;;;;;;;4.47;4.07;;;;;;;;;;5074923;28;20198;-73
2022/03/18 00:24:54;;;;;;;8.70;3.85;;;;;;;;;;5066043;28;20233;-73
2022/03/18 00:27:21;;;;;;;6.20;4.03;;;;;;;;;;5068926;28;20199;-73
2022/03/18 00:29:48;;;;;;;7.28;4.63;;;;;;;;;;5069098;28;20568;-73
2022/03/18 00:32:15;;;;;;;8.68;6.07;;;;;;;;;;5071503;28;20243;-74
2022/03/18 00:34:42;;;;;;;5.65;4.00;;;;;;;;;;5065219;28;20194;-74
2022/03/18 00:37:09;;;;;;;5.57;4.20;;;;;;;;;;5069380;28;20202;-74
2022/03/18 00:39:37;;;;;;;6.40;4.50;;;;;;;;;;5070190;28;20221;-74
2022/03/18 00:42:05;;;;;;;7.45;4.60;;;;;;;;;;5070145;28;20367;-74
2022/03/18 00:44:32;;;;;;;5.03;4.30;;;;;;;;;;5069665;28;20588;-75
2022/03/18 00:46:59;;;;;;;4.97;3.53;;;;;;;;;;5069899;28;20255;-75
2022/03/18 00:52:14;;;;;;;6.28;3.40;;;;;;;;;;5068617;28;20200;-74
2022/03/18 00:54:43;;;;;;;4.45;3.47;;;;;;;;;;5071967;28;20186;-75
2022/03/18 00:57:12;;;;;;;3.67;3.38;;;;;;;;;;5066525;28;20236;-74
2022/03/18 00:59:39;;;;;;;4.72;3.85;;;;;;;;;;5070106;28;20194;-75
2022/03/18 01:02:07;;;;;;;5.40;3.88;;;;;;;;;;5070805;28;20297;-75
2022/03/18 01:04:34;;;;;;;5.50;3.40;;;;;;;;;;5068506;28;20191;-75
2022/03/18 01:07:01;;;;;;;7.40;4.43;;;;;;;;;;5068851;28;20553;-74
2022/03/18 01:09:28;;;;;;;5.80;3.55;;;;;;;;;;5069331;28;20214;-75
2022/03/18 01:11:57;;;;;;;3.42;3.13;;;;;;;;;;5070300;28;20221;-74
2022/03/18 01:14:24;;;;;;;6.15;3.38;;;;;;;;;;5068072;28;20557;-74
2022/03/18 01:16:51;;;;;;;7.45;4.05;;;;;;;;;;5069208;28;20194;-74
2022/03/18 01:19:19;;;;;;;5.97;3.47;;;;;;;;;;5069714;28;20205;-74
2022/03/18 01:21:46;;;;;;;6.82;3.58;;;;;;;;;;5063455;28;20191;-74
2022/03/18 01:24:13;;;;;;;3.47;3.17;;;;;;;;;;5061991;28;20229;-74
2022/03/18 01:26:40;;;;;;;5.70;3.30;;;;;;;;;;5068654;28;20840;-74
2022/03/18 01:29:10;;;;;;;5.75;3.05;;;;;;;;;;5068699;28;20218;-74
2022/03/18 01:31:37;;;;;;;7.90;3.60;;;;;;;;;;5063124;28;20206;-74
2022/03/18 01:34:04;;;;;;;5.82;3.05;;;;;;;;;;5070301;28;20201;-74
2022/03/18 01:36:31;;;;;;;3.47;3.00;;;;;;;;;;5063728;28;20668;-75
2022/03/18 01:38:59;;;;;;;5.50;3.60;;;;;;;;;;5066586;28;20201;-74
2022/03/18 01:41:26;;;;;;;3.60;2.88;;;;;;;;;;5071756;28;20190;-74
2022/03/18 01:43:53;;;;;;;4.82;3.13;;;;;;;;;;5065876;28;20652;-74
2022/03/18 01:46:22;;;;;;;4.78;3.00;;;;;;;;;;5060926;28;20198;-74
2022/03/18 01:48:49;;;;;;;3.30;3.00;;;;;;;;;;5068942;28;20210;-74
2022/03/18 01:51:16;;;;;;;4.07;3.03;;;;;;;;;;5065959;28;20190;-74
2022/03/18 01:53:44;;;;;;;3.53;2.72;;;;;;;;;;5061443;28;20297;-74
2022/03/18 01:56:12;;;;;;;7.18;4.13;;;;;;;;;;5060371;28;20197;-74
2022/03/18 01:58:39;;;;;;;7.78;3.20;;;;;;;;;;5067536;28;20205;-74
2022/03/18 02:01:06;;;;;;;4.03;3.05;;;;;;;;;;5069759;28;20205;-73
2022/03/18 02:03:34;;;;;;;4.35;2.95;;;;;;;;;;5069843;28;20538;-73
2022/03/18 02:06:02;;;;;;;5.95;3.45;;;;;;;;;;5069927;28;20271;-74
2022/03/18 02:08:29;;;;;;;4.57;3.17;;;;;;;;;;5067696;28;20647;-75
2022/03/18 02:10:57;;;;;;;7.57;3.40;;;;;;;;;;5068291;28;20680;-75
2022/03/18 02:13:24;;;;;;;4.68;2.83;;;;;;;;;;5067358;28;20201;-74
2022/03/18 02:15:51;;;;;;;3.35;2.47;;;;;;;;;;5064298;28;20221;-73
2022/03/18 02:18:18;;;;;;;3.15;2.38;;;;;;;;;;5070816;28;20595;-74
2022/03/18 02:20:46;;;;;;;4.45;3.28;;;;;;;;;;5060961;28;20217;-74
2022/03/18 02:23:15;;;;;;;3.13;2.40;;;;;;;;;;5059518;28;20270;-74
2022/03/18 02:25:42;;;;;;;2.67;2.22;;;;;;;;;;5064316;28;20194;-74
2022/03/18 02:28:09;;;;;;;4.20;2.45;;;;;;;;;;5066196;28;20680;-74
2022/03/18 02:30:36;;;;;;;3.80;2.60;;;;;;;;;;5064523;28;20765;-76
2022/03/18 02:33:04;;;;;;;3.63;2.85;;;;;;;;;;5066547;28;20202;-76
2022/03/18 02:35:32;;;;;;;4.18;2.85;;;;;;;;;;5067090;28;20202;-76
2022/03/18 02:37:59;;;;;;;6.80;2.45;;;;;;;;;;5063515;28;20222;-76
2022/03/18 02:40:28;;;;;;;4.07;2.53;;;;;;;;;;5066899;28;20696;-76
2022/03/18 02:42:55;;;;;;;3.20;2.47;;;;;;;;;;5068386;28;20218;-74
2022/03/18 02:45:22;;;;;;;8.48;3.03;;;;;;;;;;5064335;28;20202;-74
2022/03/18 02:47:49;;;;;;;4.03;3.08;;;;;;;;;;5065801;28;20206;-74
2022/03/18 02:50:17;;;;;;;4.82;2.60;;;;;;;;;;5073132;28;20201;-75
2022/03/18 02:52:44;;;;;;;2.70;2.50;;;;;;;;;;5067812;28;20195;-75
2022/03/18 02:55:11;;;;;;;4.53;2.78;;;;;;;;;;5068709;28;20264;-74
2022/03/18 02:57:40;;;;;;;3.65;2.40;;;;;;;;;;5071677;28;20604;-74
2022/03/18 03:00:08;;;;;;;3.20;2.30;;;;;;;;;;5069060;28;20218;-74
2022/03/18 03:02:35;;;;;;;5.22;2.80;;;;;;;;;;5063006;28;20225;-74
2022/03/18 03:08:02;;;;;;;4.50;2.80;;;;;;;;;;5057703;28;20271;-74
2022/03/18 03:10:29;;;;;;;5.30;2.38;;;;;;;;;;5064750;28;20190;-74
2022/03/18 03:12:59;;;;;;;5.75;2.67;;;;;;;;;;5072226;28;20190;-74
2022/03/18 03:15:26;;;;;;;4.82;2.67;;;;;;;;;;5071042;28;20229;-74
2022/03/18 03:17:53;;;;;;;5.13;2.97;;;;;;;;;;5069845;28;20190;-74
2022/03/18 03:20:20;;;;;;;3.88;2.35;;;;;;;;;;5066487;28;20279;-74
2022/03/18 03:22:48;;;;;;;5.80;2.42;;;;;;;;;;5062267;28;20206;-74
2022/03/18 03:25:15;;;;;;;4.20;2.10;;;;;;;;;;5069120;28;20222;-73
2022/03/18 03:27:42;;;;;;;6.38;3.25;;;;;;;;;;5070808;28;20221;-74
2022/03/18 03:30:12;;;;;;;2.50;1.90;;;;;;;;;;5067953;28;20245;-74
2022/03/18 03:32:39;;;;;;;4.85;2.70;;;;;;;;;;5068861;28;20564;-74
2022/03/18 03:35:08;;;;;;;3.25;2.33;;;;;;;;;;5072429;28;20309;-74
2022/03/18 03:37:35;;;;;;;1.90;1.75;;;;;;;;;;5063483;28;20194;-74
2022/03/18 03:40:02;;;;;;;6.60;3.92;;;;;;;;;;5064115;28;20304;-75
2022/03/18 03:42:29;;;;;;;7.80;3.33;;;;;;;;;;5077708;28;20277;-75
2022/03/18 03:44:56;;;;;;;6.25;3.13;;;;;;;;;;5067408;28;20275;-74
2022/03/18 03:47:25;;;;;;;2.97;1.90;;;;;;;;;;5065549;28;20194;-75
2022/03/18 03:49:52;;;;;;;6.75;2.00;;;;;;;;;;5073007;28;20280;-74
2022/03/18 03:52:19;;;;;;;4.50;2.03;;;;;;;;;;5066067;28;20194;-75
2022/03/18 03:54:46;;;;;;;4.13;2.28;;;;;;;;;;5068384;28;20191;-73
2022/03/18 03:57:13;;;;;;;2.33;2.10;;;;;;;;;;5069937;28;20206;-74
2022/03/18 03:59:40;;;;;;;2.38;2.17;;;;;;;;;;5065807;28;20205;-74
2022/03/18 04:02:08;;;;;;;4.13;2.63;;;;;;;;;;5065409;28;20308;-74
2022/03/18 04:04:36;;;;;;;8.98;2.75;;;;;;;;;;5064689;28;20191;-74
2022/03/18 04:07:03;;;;;;;5.40;2.15;;;;;;;;;;5066859;28;21762;-74
2022/03/18 04:09:31;;;;;;;4.85;2.60;;;;;;;;;;5069245;28;20268;-75
2022/03/18 04:11:58;;;;;;;3.90;2.30;;;;;;;;;;5069082;28;20201;-75
2022/03/18 04:14:25;;;;;;;3.00;2.10;;;;;;;;;;5069735;28;20204;-74
2022/03/18 04:16:52;;;;;;;3.90;2.80;;;;;;;;;;5063118;28;20653;-74
2022/03/18 04:19:19;;;;;;;2.83;2.13;;;;;;;;;;5067782;28;20198;-75
2022/03/18 04:21:47;;;;;;;3.03;2.60;;;;;;;;;;5069252;28;20194;-75
2022/03/18 04:24:14;;;;;;;3.13;2.10;;;;;;;;;;5064846;28;20222;-75
2022/03/18 04:26:41;;;;;;;5.05;2.72;;;;;;;;;;5062160;28;20195;-75
2022/03/18 04:29:10;;;;;;;3.22;2.30;;;;;;;;;;5064176;28;20738;-75
2022/03/18 04:31:37;;;;;;;3.72;2.63;;;;;;;;;;5070640;28;20198;-75
2022/03/18 04:34:04;;;;;;;2.80;2.05;;;;;;;;;;5066782;28;20607;-75
2022/03/18 04:36:31;;;;;;;4.38;2.03;;;;;;;;;;5065943;28;20210;-74
2022/03/18 04:39:01;;;;;;;3.42;2.20;;;;;;;;;;5061643;28;20195;-74
2022/03/18 04:41:28;;;;;;;5.32;3.65;;;;;;;;;;5064898;28;20194;-75
2022/03/18 04:43:55;;;;;;;4.72;2.53;;;;;;;;;;5068544;28;20202;-74
2022/03/18 04:46:22;;;;;;;2.85;2.55;;;;;;;;;;5068127;28;20607;-74
2022/03/18 04:48:49;;;;;;;4.47;3.10;;;;;;;;;;5070776;28;20275;-74
2022/03/18 04:51:16;;;;;;;5.97;2.65;;;;;;;;;;5068926;28;20205;-75
2022/03/18 04:53:43;;;;;;;5.53;2.20;;;;;;;;;;5062258;28;20198;-75
2022/03/18 04:58:53;;;;;;;4.50;2.60;;;;;;;;;;5067487;28;20201;-75
2022/03/18 05:01:20;;;;;;;2.85;2.15;;;;;;;;;;5069236;28;20206;-74
2022/03/18 05:03:47;;;;;;;3.50;2.38;;;;;;;;;;5070558;28;20248;-73
2022/03/18 05:06:15;;;;;;;4.18;2.40;;;;;;;;;;5064031;28;20248;-74
2022/03/18 05:08:42;;;;;;;3.55;2.75;;;;;;;;;;5064478;28;20194;-73
2022/03/18 05:11:09;;;;;;;4.38;3.05;;;;;;;;;;5067516;28;20206;-73
2022/03/18 05:13:38;;;;;;;3.67;2.25;;;;;;;;;;5060122;28;20198;-74
2022/03/18 05:16:06;;;;;;;2.72;2.25;;;;;;;;;;5064833;28;20649;-74
2022/03/18 05:18:33;;;;;;;6.13;2.35;;;;;;;;;;5068803;28;20522;-74
2022/03/18 05:21:00;;;;;;;4.13;2.42;;;;;;;;;;5068535;28;20194;-73
2022/03/18 05:23:27;;;;;;;6.43;2.83;;;;;;;;;;5064443;28;20217;-73
2022/03/18 05:25:54;;;;;;;3.50;2.83;;;;;;;;;;5069065;28;20628;-73
2022/03/18 05:28:21;;;;;;;3.83;2.85;;;;;;;;;;5067934;28;20205;-73
2022/03/18 05:30:50;;;;;;;4.13;2.70;;;;;;;;;;5067724;28;20218;-73
2022/03/18 05:33:19;;;;;;;2.75;2.05;;;;;;;;;;5068954;28;20289;-73
2022/03/18 05:35:46;;;;;;;3.90;2.70;;;;;;;;;;5070034;28;20291;-73
2022/03/18 05:38:13;;;;;;;3.75;2.75;;;;;;;;;;5059205;28;20194;-74
2022/03/18 05:40:40;;;;;;;4.35;3.47;;;;;;;;;;5062620;28;20198;-74
2022/03/18 05:43:07;;;;;;;4.55;2.20;;;;;;;;;;5067094;28;20202;-74
2022/03/18 05:45:34;;;;;;;3.20;2.50;;;;;;;;;;5064716;28;20190;-74
2022/03/18 05:48:03;;;;;;;6.57;2.60;;;;;;;;;;5054263;28;20203;-73
2022/03/18 05:50:31;;;;;;;3.90;3.03;;;;;;;;;;5069921;28;20218;-74
2022/03/18 05:52:58;;;;;;;5.78;3.38;;;;;;;;;;5059105;28;20194;-74
2022/03/18 05:55:25;;;;;;;4.60;2.83;;;;;;;;;;5062723;28;20553;-74
2022/03/18 05:57:52;;;;;;;3.55;2.40;;;;;;;;;;5059568;28;20212;-74
2022/03/18 06:00:20;;;;;;;5.00;3.65;;;;;;;;;;5066696;28;20633;-74
2022/03/18 06:02:47;;;;;;;4.05;2.85;;;;;;;;;;5067933;28;20194;-73
2022/03/18 06:05:16;;;;;;;6.15;3.38;;;;;;;;;;5066759;28;20197;-74
2022/03/18 06:07:43;;;;;;;2.85;2.55;;;;;;;;;;5063897;28;20187;-74
2022/03/18 06:12:55;;;;;;;5.18;3.20;;;;;;;;;;5069669;28;20204;-74
2022/03/18 06:15:22;;;;;;;5.43;2.85;;;;;;;;;;5065727;28;20203;-74
2022/03/18 06:17:49;;;;;;;5.20;3.05;;;;;;;;;;5067171;28;20191;-73
2022/03/18 06:20:18;;;;;;;9.32;3.50;;;;;;;;;;5064435;28;20346;-74
2022/03/18 06:22:45;;;;;;;4.40;3.00;;;;;;;;;;5069394;28;20251;-73
2022/03/18 06:25:12;;;;;;;3.38;3.03;;;;;;;;;;5069727;28;20495;-74
2022/03/18 06:27:39;;;;;;;4.35;3.63;;;;;;;;;;5067304;28;20194;-74
2022/03/18 06:30:07;;;;;;;3.30;2.65;;;;;;;;;;5070015;28;20707;-74
2022/03/18 06:32:34;;;;;;;4.40;3.70;;;;;;;;;;5079602;28;20190;-73
2022/03/18 06:35:01;;;;;;;5.47;3.33;;;;;;;;;;5070797;28;20194;-73
2022/03/18 06:37:29;;;;;;;3.47;2.65;;;;;;;;;;5070338;28;20201;-73
2022/03/18 06:39:56;;;;;;;5.78;2.75;;;;;;;;;;5059563;28;20191;-74
2022/03/18 06:42:24;;;;;;;4.22;3.50;;;;;;;;;;5064874;28;20202;-73
2022/03/18 06:44:51;;;;;;;4.18;2.95;;;;;;;;;;5066377;28;20191;-73
2022/03/18 06:47:18;;;;;;;6.75;3.97;;;;;;;;;;5067638;28;20194;-73
2022/03/18 06:49:45;;;;;;;4.88;3.20;;;;;;;;;;5057956;28;20215;-73
2022/03/18 06:52:12;;;;;;;7.18;3.33;;;;;;;;;;5074286;28;20198;-73
2022/03/18 06:54:41;;;;;;;5.30;3.35;;;;;;;;;;5062613;28;20672;-74
2022/03/18 06:57:08;;;;;;;3.95;3.00;;;;;;;;;;5066566;28;20194;-73
2022/03/18 06:59:35;;;;;;;5.53;2.78;;;;;;;;;;5064270;28;20198;-73
2022/03/18 07:02:02;;;;;;;6.55;3.92;;;;;;;;;;5070984;28;20212;-73
2022/03/18 07:04:29;;;;;;;3.60;2.67;;;;;;;;;;5068519;28;20205;-73
2022/03/18 07:06:56;;;;;;;5.82;2.63;;;;;;;;;;5067328;28;20553;-73
2022/03/18 07:09:23;;;;;;;7.22;4.05;;;;;;;;;;5069868;28;20194;-73
2022/03/18 07:11:52;;;;;;;6.68;4.30;;;;;;;;;;5067950;28;20240;-74
2022/03/18 07:14:19;;;;;;;8.10;4.13;;;;;;;;;;5063886;28;20663;-74
2022/03/18 07:19:32;;;;;;;5.72;3.30;;;;;;;;;;5068228;28;20205;-74
2022/03/18 07:21:59;;;;;;;4.45;3.47;;;;;;;;;;5069698;28;20195;-74
2022/03/18 07:24:26;;;;;;;7.60;3.50;;;;;;;;;;5064658;28;20222;-74
2022/03/18 07:26:54;;;;;;;5.85;3.90;;;;;;;;;;5068061;28;20198;-74
2022/03/18 07:29:21;;;;;;;5.78;2.95;;;;;;;;;;5064877;28;20195;-74
2022/03/18 07:31:51;;;;;;;4.25;3.30;;;;;;;;;;5068368;28;20205;-74
2022/03/18 07:34:18;;;;;;;4.70;2.97;;;;;;;;;;5061967;28;20195;-75
2022/03/18 07:36:45;;;;;;;4.65;2.67;;;;;;;;;;5068041;28;20213;-72
2022/03/18 07:39:12;;;;;;;10.05;3.65;;;;;;;;;;5061862;28;20198;-77
2022/03/18 07:41:39;;;;;;;4.75;3.03;;;;;;;;;;5069306;28;20199;-74
2022/03/18 07:44:07;;;;;;;5.35;3.67;;;;;;;;;;5064543;28;20198;-75
2022/03/18 07:46:36;;;;;;;4.80;4.00;;;;;;;;;;5066933;28;20273;-75
2022/03/18 07:49:03;;;;;;;3.38;2.75;;;;;;;;;;5068804;28;20676;-75
2022/03/18 07:51:30;;;;;;;4.60;3.58;;;;;;;;;;5069620;28;20244;-75
2022/03/18 07:53:57;;;;;;;4.40;3.00;;;;;;;;;;5063969;28;20499;-75
2022/03/18 07:56:25;;;;;;;7.57;4.22;;;;;;;;;;5068621;28;20194;-75
2022/03/18 07:58:52;;;;;;;4.10;3.08;;;;;;;;;;5066609;28;20489;-74
2022/03/18 08:01:20;;;;;;;4.97;4.15;;;;;;;;;;5064197;28;20578;-73
2022/03/18 08:03:47;;;;;;;7.35;3.88;;;;;;;;;;5079727;28;20190;-79
2022/03/18 08:06:14;;;;;;;5.05;3.55;;;;;;;;;;5057541;28;20200;-79
2022/03/18 08:08:41;;;;;;;5.38;4.25;;;;;;;;;;5062485;28;20572;-79
2022/03/18 08:11:08;;;;;;;6.47;4.13;;;;;;;;;;5067336;28;20332;-82
2022/03/18 08:13:35;;;;;;;8.00;4.25;;;;;;;;;;5070141;28;20193;-81
2022/03/18 08:16:02;;;;;;;6.88;3.85;;;;;;;;;;5067144;28;20240;-78
2022/03/18 08:18:31;;;;;;;6.40;3.75;;;;;;;;;;5063895;28;20198;-74
2022/03/18 08:20:58;;;;;;;5.60;4.40;;;;;;;;;;5066442;28;20751;-74
2022/03/18 08:23:27;;;;;;;6.22;3.78;;;;;;;;;;5068230;28;20206;-74
2022/03/18 08:25:54;;;;;;;6.70;4.97;;;;;;;;;;5071203;28;20194;-74
2022/03/18 08:28:21;;;;;;;6.75;4.90;;;;;;;;;;5060544;28;20562;-74
2022/03/18 08:30:48;;;;;;;5.68;4.40;;;;;;;;;;5063658;28;20234;-73
2022/03/18 08:33:15;;;;;;;14.27;5.70;;;;;;;;;;5072543;28;20198;-74
2022/03/18 08:35:43;;;;;;;6.80;5.45;;;;;;;;;;5070457;28;20186;-74
2022/03/18 08:38:10;;;;;;;7.90;4.53;;;;;;;;;;5061511;28;20665;-75
2022/03/18 08:40:38;;;;;;;7.25;4.15;;;;;;;;;;5068853;28;20198;-74
2022/03/18 08:43:06;;;;;;;8.82;5.43;;;;;;;;;;5065576;28;20350;-73
2022/03/18 08:45:34;;;;;;;12.65;5.78;;;;;;;;;;5065915;28;20206;-74
2022/03/18 08:48:01;;;;;;;7.88;4.35;;;;;;;;;;5068501;28;20197;-74
2022/03/18 08:50:28;;;;;;;9.85;4.82;;;;;;;;;;5069674;28;20214;-75
2022/03/18 08:52:57;;;;;;;12.48;7.13;;;;;;;;;;5065129;28;20740;-74
2022/03/18 08:55:24;;;;;;;8.15;4.60;;;;;;;;;;5066893;28;20197;-74
2022/03/18 08:57:52;;;;;;;7.78;5.03;;;;;;;;;;5065036;28;20534;-74
2022/03/18 09:00:19;;;;;;;7.72;4.53;;;;;;;;;;5069675;28;20208;-75
2022/03/18 09:02:47;;;;;;;7.90;4.70;;;;;;;;;;5065926;28;20195;-73
2022/03/18 09:05:14;;;;;;;7.50;4.90;;;;;;;;;;5068832;28;20194;-73
2022/03/18 09:07:42;;;;;;;10.85;4.50;;;;;;;;;;5067542;28;20198;-74
2022/03/18 09:10:12;;;;;;;7.82;4.30;;;;;;;;;;5070041;28;20222;-73
2022/03/18 09:12:44;;;;;;;7.47;4.53;;;;;;;;;;5067724;28;20194;-75
2022/03/18 09:15:12;;;;;;;9.15;5.28;;;;;;;;;;5072561;28;20289;-74
2022/03/18 09:17:39;;;;;;;8.60;3.72;;;;;;;;;;5068760;28;20206;-74
2022/03/18 09:20:07;;;;;;;7.05;3.33;;;;;;;;;;5069944;28;20198;-73
2022/03/18 09:22:34;;;;;;;6.35;4.00;;;;;;;;;;5066758;28;20602;-74
2022/03/18 09:25:01;;;;;;;6.30;3.70;;;;;;;;;;5070325;28;20221;-73
2022/03/18 09:27:29;;;;;;;5.20;4.07;;;;;;;;;;5060713;28;20194;-73
2022/03/18 09:29:57;;;;;;;6.03;2.65;;;;;;;;;;5064110;28;20198;-75
2022/03/18 09:32:24;;;;;;;7.28;3.08;;;;;;;;;;5067860;28;20247;-73
2022/03/18 09:34:51;;;;;;;7.55;3.67;;;;;;;;;;5066139;28;20203;-73
2022/03/18 09:37:19;;;;;;;4.50;3.38;;;;;;;;;;5067155;28;20639;-73
2022/03/18 09:39:46;;;;;;;6.30;2.90;;;;;;;;;;5069946;28;20218;-72
2022/03/18 09:42:13;;;;;;;5.10;3.50;;;;;;;;;;5065574;28;20190;-73
2022/03/18 09:44:42;;;;;;;3.50;2.83;;;;;;;;;;5067561;28;20190;-73
2022/03/18 09:47:10;;;;;;;7.18;3.67;;;;;;;;;;5065226;28;20615;-72
2022/03/18 09:49:37;;;;;;;4.95;2.90;;;;;;;;;;5061754;28;20202;-72
2022/03/18 09:52:05;;;;;;;4.90;2.75;;;;;;;;;;5060243;28;20237;-83
2022/03/18 09:54:34;;;;;;;3.75;2.35;;;;;;;;;;5062393;28;20542;-72
2022/03/18 09:57:01;;;;;;;3.50;2.45;;;;;;;;;;5065782;28;20186;-72
2022/03/18 09:59:29;;;;;;;6.70;3.70;;;;;;;;;;5068470;28;20205;-71
2022/03/18 10:02:14;;;;;;;5.57;2.70;;;;;;;;;;5071022;28;20202;-72
2022/03/18 10:04:53;;;;;;;6.88;3.05;;;;;;;;;;5048742;28;20842;-72
2022/03/18 10:07:21;;;;;;;5.00;2.65;;;;;;;;;;5071906;28;20216;-72
2022/03/18 10:09:48;;;;;;;6.28;2.88;;;;;;;;;;5067008;28;20735;-73
2022/03/18 10:12:28;;;;;;;4.80;3.05;;;;;;;;;;5068460;28;20237;-72
2022/03/18 10:15:03;;;;;;;4.68;3.20;;;;;;;;;;5055711;28;20454;-73
2022/03/18 10:17:38;;;;;;;6.20;3.20;;;;;;;;;;5066527;28;20208;-73
2022/03/18 10:20:07;;;;;;;4.05;2.38;;;;;;;;;;5066593;28;20204;-73
2022/03/18 10:22:36;;;;;;;5.22;2.90;;;;;;;;;;5066431;28;20239;-70
2022/03/18 10:25:04;;;;;;;5.63;3.00;;;;;;;;;;5063482;28;20226;-72
2022/03/18 10:27:32;;;;;;;5.72;2.85;;;;;;;;;;5064933;28;20190;-72
2022/03/18 10:29:59;;;;;;;8.70;3.30;;;;;;;;;;5064518;28;20206;-71
2022/03/18 10:32:27;;;;;;;3.78;2.63;;;;;;;;;;5067103;28;20611;-72
2022/03/18 10:37:44;;;;;;;3.05;2.75;;;;;;;;;;5057406;28;20205;-72
2022/03/18 10:40:12;;;;;;;7.30;5.45;;;;;;;;;;5056990;28;20194;-73
2022/03/18 10:42:39;;;;;;;11.02;4.28;;;;;;;;;;5063617;28;20199;-72
2022/03/18 10:45:08;;;;;;;4.40;2.95;;;;;;;;;;5061593;28;20244;-73
2022/03/18 10:47:35;;;;;;;5.28;3.28;;;;;;;;;;5065915;28;20198;-72
2022/03/18 10:50:21;;;;;;;5.80;2.95;;;;;;;;;;5059821;28;20205;-74
2022/03/18 10:53:11;;;;;;;4.45;2.50;;;;;;;;;;5060669;28;20191;-72
2022/03/18 10:55:39;;;;;;;5.82;2.72;;;;;;;;;;5062641;28;20259;-72
2022/03/18 10:58:08;;;;;;;4.07;3.20;;;;;;;;;;5060387;28;20206;-72
2022/03/18 11:00:35;;;;;;;6.07;2.90;;;;;;;;;;5064112;28;20194;-72
2022/03/18 11:03:03;;;;;;;7.30;3.78;;;;;;;;;;5065548;28;20469;-72
2022/03/18 11:05:31;;;;;;;5.90;3.08;;;;;;;;;;5066344;28;20199;-73
2022/03/18 11:08:00;;;;;;;6.93;4.40;;;;;;;;;;5058107;28;20213;-74
2022/03/18 11:13:15;;;;;;;9.90;3.25;;;;;;;;;;5064631;28;20213;-72
2022/03/18 11:15:43;;;;;;;6.75;2.42;;;;;;;;;;5065690;28;20198;-72
2022/03/18 11:18:11;;;;;;;7.18;3.83;;;;;;;;;;5064115;28;20521;-72
2022/03/18 11:20:42;;;;;;;5.65;3.25;;;;;;;;;;5062925;28;20222;-73
2022/03/18 11:23:14;;;;;;;7.68;3.47;;;;;;;;;;5054109;28;20207;-73
2022/03/18 11:25:43;;;;;;;4.72;2.70;;;;;;;;;;5059998;28;20298;-74
2022/03/18 11:28:15;;;;;;;7.68;3.40;;;;;;;;;;5062547;28;20653;-72
2022/03/18 11:30:42;;;;;;;3.92;2.60;;;;;;;;;;5062196;28;20218;-73
2022/03/18 11:33:19;;;;;;;3.78;2.92;;;;;;;;;;5069357;28;20293;-73
2022/03/18 11:36:05;;;;;;;7.63;4.18;;;;;;;;;;5067904;28;20277;-74
2022/03/18 11:38:47;;;;;;;7.38;4.60;;;;;;;;;;5062382;28;20202;-73
2022/03/18 11:41:17;;;;;;;8.60;4.85;;;;;;;;;;5060969;28;20550;-72
2022/03/18 11:43:51;;;;;;;6.75;3.90;;;;;;;;;;5066528;28;20205;-73
2022/03/18 11:46:23;;;;;;;4.88;3.75;;;;;;;;;;5061115;28;20218;-73
2022/03/18 11:48:50;;;;;;;11.55;4.47;;;;;;;;;;5051389;28;20237;-74
2022/03/18 11:51:24;;;;;;;8.93;4.45;;;;;;;;;;5050412;28;20230;-73
2022/03/18 11:53:53;;;;;;;7.43;3.60;;;;;;;;;;5061688;28;20286;-73
2022/03/18 11:56:25;;;;;;;6.43;3.85;;;;;;;;;;5066850;28;20201;-73
2022/03/18 11:58:52;;;;;;;8.77;3.58;;;;;;;;;;5065428;28;20201;-72
2022/03/18 12:01:37;;;;;;;6.85;3.70;;;;;;;;;;5066251;28;20932;-73
2022/03/18 12:04:06;;;;;;;6.55;3.65;;;;;;;;;;5065252;28;20199;-72
2022/03/18 12:06:33;;;;;;;7.85;4.18;;;;;;;;;;5067959;28;20558;-72
2022/03/18 12:09:01;;;;;;;9.18;3.70;;;;;;;;;;5064284;28;20204;-74
2022/03/18 12:11:37;;;;;;;7.63;3.72;;;;;;;;;;5071877;28;20606;-73
2022/03/18 12:14:05;;;;;;;7.15;3.47;;;;;;;;;;5067221;28;20538;-73
2022/03/18 12:16:32;;;;;;;3.67;2.75;;;;;;;;;;5068044;28;20549;-73
2022/03/18 12:19:00;;;;;;;4.70;3.58;;;;;;;;;;5065422;28;20209;-73
2022/03/18 12:21:35;;;;;;;7.45;3.35;;;;;;;;;;5066282;28;20202;-72
2022/03/18 12:24:06;;;;;;;4.93;2.63;;;;;;;;;;5067677;28;20801;-72
2022/03/18 12:26:34;;;;;;;5.15;3.33;;;;;;;;;;5066128;28;20301;-71
2022/03/18 12:29:02;;;;;;;5.97;4.05;;;;;;;;;;5066172;28;20194;-71
2022/03/18 12:31:29;;;;;;;8.02;3.08;;;;;;;;;;5069074;28;20228;-72
2022/03/18 12:33:57;;;;;;;7.47;2.85;;;;;;;;;;5064674;28;20202;-73
2022/03/18 12:36:26;;;;;;;4.68;3.15;;;;;;;;;;5066657;28;20190;-73
2022/03/18 12:39:05;;;;;;;6.05;3.60;;;;;;;;;;5065967;28;20198;-73
2022/03/18 12:41:32;;;;;;;6.53;3.53;;;;;;;;;;5055315;28;20560;-72
2022/03/18 12:43:59;;;;;;;4.70;3.67;;;;;;;;;;5059718;28;20205;-74
2022/03/18 12:46:28;;;;;;;6.85;3.28;;;;;;;;;;5066317;28;20256;-74
2022/03/18 12:48:56;;;;;;;14.13;3.80;;;;;;;;;;5061803;28;20198;-74
2022/03/18 12:51:24;;;;;;;7.85;4.10;;;;;;;;;;5048969;28;20288;-73
2022/03/18 12:53:51;;;;;;;5.93;3.60;;;;;;;;;;5061886;28;20195;-74
2022/03/18 12:56:19;;;;;;;4.55;2.63;;;;;;;;;;5065463;28;20198;-74
2022/03/18 12:58:47;;;;;;;10.27;3.88;;;;;;;;;;5058198;28;20202;-74
2022/03/18 13:01:15;;;;;;;4.63;3.78;;;;;;;;;;5067530;28;20653;-73
2022/03/18 13:03:48;;;;;;;7.85;3.10;;;;;;;;;;5061238;28;20190;-75
2022/03/18 13:06:19;;;;;;;7.90;4.05;;;;;;;;;;5064827;28;20198;-73
2022/03/18 13:08:47;;;;;;;9.10;5.22;;;;;;;;;;5053084;28;20529;-74
2022/03/18 13:11:15;;;;;;;7.38;3.25;;;;;;;;;;5053998;28;20204;-73
2022/03/18 13:13:46;;;;;;;3.80;3.33;;;;;;;;;;5061206;28;20198;-70
2022/03/18 13:16:13;;;;;;;6.18;3.50;;;;;;;;;;5059637;28;20738;-73
2022/03/18 13:18:49;;;;;;;10.73;4.53;;;;;;;;;;5055795;28;20288;-73
2022/03/18 13:21:17;;;;;;;9.77;3.95;;;;;;;;;;5058193;28;20205;-74
2022/03/18 13:23:45;;;;;;;8.23;4.10;;;;;;;;;;5054658;28;20964;-73
2022/03/18 13:26:13;;;;;;;6.93;4.10;;;;;;;;;;5055741;28;20209;-73
2022/03/18 13:28:41;;;;;;;8.73;4.35;;;;;;;;;;5058486;28;20671;-75
2022/03/18 13:33:53;;;;;;;4.18;2.92;;;;;;;;;;5056370;28;20568;-74
2022/03/18 13:36:29;;;;;;;4.15;3.47;;;;;;;;;;5055933;28;20212;-73
2022/03/18 13:38:58;;;;;;;6.00;3.30;;;;;;;;;;5058049;28;20718;-74
2022/03/18 13:41:27;;;;;;;7.03;3.67;;;;;;;;;;5057351;28;20194;-72
2022/03/18 13:43:55;;;;;;;7.57;3.88;;;;;;;;;;5055809;28;20207;-74
2022/03/18 13:46:24;;;;;;;5.47;3.50;;;;;;;;;;5063780;28;20254;-73
2022/03/18 13:48:57;;;;;;;6.85;3.00;;;;;;;;;;5064179;28;20198;-74
2022/03/18 13:51:33;;;;;;;9.15;3.30;;;;;;;;;;5057957;28;20190;-72
2022/03/18 13:54:08;;;;;;;4.05;3.10;;;;;;;;;;5056822;28;20208;-73
2022/03/18 13:56:35;;;;;;;6.20;3.50;;;;;;;;;;5063689;28;20202;-72
2022/03/18 13:59:10;;;;;;;3.35;2.70;;;;;;;;;;5062595;28;20237;-72
2022/03/18 14:01:37;;;;;;;3.28;2.72;;;;;;;;;;5058523;28;20283;-73
2022/03/18 14:04:04;;;;;;;3.75;2.60;;;;;;;;;;5065352;28;20630;-72
2022/03/18 14:06:50;;;;;;;7.85;3.00;;;;;;;;;;5059919;28;20198;-72
2022/03/18 14:09:17;;;;;;;8.20;3.85;;;;;;;;;;5057133;28;20556;-72
2022/03/18 14:14:29;;;;;;;6.18;2.30;;;;;;;;;;5056134;28;20220;-72
2022/03/18 14:17:13;;;;;;;7.28;4.07;;;;;;;;;;5052010;28;20206;-72
2022/03/18 14:19:50;;;;;;;4.97;2.63;;;;;;;;;;5057400;28;20194;-74
2022/03/18 14:22:32;;;;;;;4.68;2.53;;;;;;;;;;5058628;28;20497;-73
2022/03/18 14:24:59;;;;;;;3.88;2.65;;;;;;;;;;5061194;28;20303;-73
2022/03/18 14:27:27;;;;;;;5.90;2.50;;;;;;;;;;5060248;28;20473;-73
2022/03/18 14:29:54;;;;;;;5.55;2.40;;;;;;;;;;5058860;28;20186;-72
2022/03/18 14:32:21;;;;;;;4.30;2.47;;;;;;;;;;5060074;28;20222;-72
2022/03/18 14:34:50;;;;;;;8.90;4.28;;;;;;;;;;5062349;28;20209;-72
2022/03/18 14:37:17;;;;;;;3.92;2.45;;;;;;;;;;5062141;28;20277;-72
2022/03/18 14:39:45;;;;;;;4.78;2.65;;;;;;;;;;5065900;28;20187;-73
2022/03/18 14:42:12;;;;;;;5.28;2.97;;;;;;;;;;5058287;28;20202;-72
2022/03/18 14:44:40;;;;;;;7.78;4.65;;;;;;;;;;5061381;28;20210;-72
2022/03/18 14:47:07;;;;;;;10.25;3.35;;;;;;;;;;5066684;28;20190;-73
2022/03/18 14:49:34;;;;;;;4.32;2.45;;;;;;;;;;5059864;28;20595;-75
2022/03/18 14:52:01;;;;;;;5.25;2.72;;;;;;;;;;5063819;28;20924;-72
2022/03/18 14:57:29;;;;;;;6.18;3.00;;;;;;;;;;4996333;28;20235;-72
2022/03/18 14:59:56;;;;;;;3.90;2.63;;;;;;;;;;4998403;28;20197;-72
2022/03/18 15:02:24;;;;;;;4.43;3.78;;;;;;;;;;5025207;28;20198;-74
2022/03/18 15:04:52;;;;;;;4.03;2.67;;;;;;;;;;5062638;28;20205;-71
2022/03/18 15:07:20;;;;;;;5.25;2.67;;;;;;;;;;5060177;28;20198;-72
2022/03/18 15:09:47;;;;;;;8.60;2.83;;;;;;;;;;5062411;28;20190;-72
2022/03/18 15:12:16;;;;;;;3.97;2.97;;;;;;;;;;5060086;28;20221;-75
2022/03/18 15:14:45;;;;;;;6.68;2.17;;;;;;;;;;5062129;28;20201;-72
2022/03/18 15:17:13;;;;;;;4.88;3.25;;;;;;;;;;5063082;28;20206;-74